Time;durP1;ratioP1;P1;durP2;ratioP2;P2;SDS_P1;SDS_P2;PMS_P1;PMS_P2;Temp;Humidity;BMP_temperature;BMP_pressure;BME280_temperature;BME280_humidity;BME280_pressure;Samples;Min_cycle;Max_cycle;Signal;HPM_P1;HPM_P2
2024/01/06 00:00:13;;;;;;;12.93;4.93;;;;;;;4.43;79.84;99260.94;2554930;28;20051;-82
2024/01/06 00:01:28;;;;;;;8.80;4.03;;;;;;;4.44;79.84;99262.66;2554910;28;20040;-82
2024/01/06 00:02:41;;;;;;;4.97;3.55;;;;;;;4.44;79.87;99257.47;2554783;28;20649;-83
2024/01/06 00:03:55;;;;;;;6.55;4.03;;;;;;;4.44;79.79;99254.91;2554718;28;20044;-82
2024/01/06 00:05:09;;;;;;;7.25;3.83;;;;;;;4.45;79.78;99261.81;2555495;28;20045;-82
2024/01/06 00:06:23;;;;;;;11.35;4.20;;;;;;;4.45;79.82;99265.25;2554238;28;20048;-81
2024/01/06 00:07:37;;;;;;;5.25;3.78;;;;;;;4.47;79.67;99262.66;2554848;28;20045;-82
2024/01/06 00:08:54;;;;;;;4.70;3.75;;;;;;;4.49;79.72;99258.31;2554058;28;20048;-81
2024/01/06 00:10:08;;;;;;;5.85;3.78;;;;;;;4.50;79.54;99257.47;2554763;28;20041;-79
2024/01/06 00:11:23;;;;;;;10.18;3.80;;;;;;;4.53;79.57;99262.59;2554137;28;20574;-81
2024/01/06 00:12:37;;;;;;;6.35;4.57;;;;;;;4.52;79.42;99258.31;2555469;28;20048;-83
2024/01/06 00:13:51;;;;;;;7.65;3.75;;;;;;;4.53;79.52;99265.19;2554192;28;20059;-81
2024/01/06 00:15:06;;;;;;;7.72;3.58;;;;;;;4.54;79.58;99256.56;2553676;28;20071;-81
2024/01/06 00:16:21;;;;;;;5.63;3.58;;;;;;;4.56;79.39;99266.00;2554128;28;20067;-83
2024/01/06 00:17:34;;;;;;;5.20;3.55;;;;;;;4.55;79.51;99266.91;2555228;28;20048;-81
2024/01/06 00:18:49;;;;;;;9.35;4.78;;;;;;;4.55;79.27;99266.03;2554141;28;20516;-80
2024/01/06 00:20:04;;;;;;;8.05;3.65;;;;;;;4.55;79.29;99266.03;2554558;28;20057;-80
2024/01/06 00:21:18;;;;;;;4.70;3.35;;;;;;;4.55;79.19;99259.16;2554849;28;20048;-82
2024/01/06 00:22:32;;;;;;;7.57;4.75;;;;;;;4.56;79.14;99267.75;2553915;28;20509;-81
2024/01/06 00:23:46;;;;;;;12.00;4.03;;;;;;;4.55;79.28;99266.91;2554254;28;20201;-80
2024/01/06 00:25:01;;;;;;;7.35;3.33;;;;;;;4.55;78.97;99261.72;2554394;28;20516;-82
2024/01/06 00:26:15;;;;;;;5.10;4.35;;;;;;;4.55;79.07;99261.72;2554154;28;20131;-81
2024/01/06 00:27:29;;;;;;;7.20;3.20;;;;;;;4.55;78.98;99261.72;2553272;28;20062;-81
2024/01/06 00:28:43;;;;;;;7.40;4.00;;;;;;;4.57;79.02;99259.16;2554769;28;20169;-81
2024/01/06 00:29:57;;;;;;;4.53;3.45;;;;;;;4.57;78.83;99261.72;2554036;28;20053;-81
2024/01/06 00:31:11;;;;;;;5.80;4.32;;;;;;;4.56;78.84;99262.59;2554388;28;20048;-81
2024/01/06 00:32:24;;;;;;;6.45;2.67;;;;;;;4.54;78.71;99259.16;2553863;28;20055;-82
2024/01/06 00:33:39;;;;;;;8.07;3.67;;;;;;;4.53;78.75;99258.28;2554200;28;20050;-81
2024/01/06 00:34:52;;;;;;;7.20;3.17;;;;;;;4.54;78.61;99262.63;2553070;28;20036;-80
2024/01/06 00:36:08;;;;;;;5.88;3.80;;;;;;;4.52;78.66;99263.50;2553965;28;20048;-81
2024/01/06 00:37:21;;;;;;;4.80;3.38;;;;;;;4.52;78.62;99264.34;2554263;28;20045;-82
2024/01/06 00:38:36;;;;;;;7.80;3.90;;;;;;;4.50;78.62;99266.06;2554493;28;20054;-80
2024/01/06 00:39:50;;;;;;;6.85;3.28;;;;;;;4.50;78.61;99265.22;2554206;28;20055;-80
2024/01/06 00:41:05;;;;;;;5.07;3.92;;;;;;;4.50;78.65;99267.81;2554448;28;20056;-82
2024/01/06 00:42:19;;;;;;;6.10;3.97;;;;;;;4.49;78.62;99263.47;2554321;28;20048;-80
2024/01/06 00:43:33;;;;;;;8.70;6.20;;;;;;;4.48;78.54;99265.22;2554198;28;20072;-82
2024/01/06 00:44:47;;;;;;;6.47;3.45;;;;;;;4.47;78.64;99262.66;2553903;28;20446;-82
2024/01/06 00:46:02;;;;;;;7.55;3.30;;;;;;;4.47;78.68;99262.66;2554033;28;20140;-81
2024/01/06 00:47:15;;;;;;;7.57;3.67;;;;;;;4.47;78.67;99266.09;2554154;28;20040;-82
2024/01/06 00:48:29;;;;;;;5.80;3.97;;;;;;;4.47;78.58;99265.25;2554370;28;20058;-81
2024/01/06 00:49:43;;;;;;;7.72;3.17;;;;;;;4.45;78.52;99260.06;2554846;28;20059;-81
2024/01/06 00:50:57;;;;;;;9.75;4.35;;;;;;;4.46;78.67;99269.53;2553320;28;20051;-81
2024/01/06 00:52:11;;;;;;;6.32;4.05;;;;;;;4.45;78.60;99264.38;2554376;28;20048;-81
2024/01/06 00:53:25;;;;;;;7.57;3.28;;;;;;;4.46;78.44;99266.09;2553954;28;20460;-82
2024/01/06 00:54:39;;;;;;;9.02;5.20;;;;;;;4.44;78.58;99260.94;2554726;28;20048;-81
2024/01/06 00:55:53;;;;;;;7.32;4.03;;;;;;;4.44;78.32;99247.16;2553824;28;20057;-82
2024/01/06 00:57:08;;;;;;;8.82;4.47;;;;;;;4.43;78.55;99255.78;2554510;28;20075;-82
2024/01/06 00:58:22;;;;;;;7.78;3.65;;;;;;;4.43;78.31;99258.38;2553689;28;20052;-82
2024/01/06 00:59:36;;;;;;;9.68;4.13;;;;;;;4.42;78.41;99256.66;2554621;28;20583;-82
2024/01/06 01:00:49;;;;;;;6.03;3.55;;;;;;;4.42;78.57;99265.25;2554223;28;20497;-81
2024/01/06 01:02:04;;;;;;;5.10;4.03;;;;;;;4.40;78.41;99260.97;2554643;28;20048;-81
2024/01/06 01:03:18;;;;;;;5.88;3.42;;;;;;;4.40;78.36;99263.56;2553575;28;20041;-82
2024/01/06 01:04:32;;;;;;;4.78;3.20;;;;;;;4.37;78.46;99267.88;2554726;28;20406;-81
2024/01/06 01:05:46;;;;;;;5.38;3.03;;;;;;;4.35;78.29;99266.16;2554788;28;20052;-82
2024/01/06 01:07:00;;;;;;;9.35;3.90;;;;;;;4.35;78.44;99272.19;2554031;28;20041;-82
2024/01/06 01:08:13;;;;;;;18.33;5.07;;;;;;;4.33;78.40;99273.06;2554196;28;20067;-81
2024/01/06 01:09:28;;;;;;;4.70;4.00;;;;;;;4.32;78.30;99277.38;2554219;28;20102;-81
2024/01/06 01:10:41;;;;;;;5.75;3.53;;;;;;;4.31;78.43;99267.03;2553984;28;20052;-81
2024/01/06 01:11:56;;;;;;;8.73;4.45;;;;;;;4.31;78.31;99278.25;2554049;28;20048;-82
2024/01/06 01:13:10;;;;;;;6.43;3.65;;;;;;;4.32;78.30;99279.09;2554284;28;20044;-80
2024/01/06 01:14:25;;;;;;;5.70;3.17;;;;;;;4.30;78.26;99275.66;2553291;28;20118;-80
2024/01/06 01:15:38;;;;;;;5.82;3.95;;;;;;;4.29;78.11;99273.94;2553999;28;20056;-82
2024/01/06 01:16:53;;;;;;;6.43;3.30;;;;;;;4.29;78.40;99286.88;2553885;28;20044;-80
2024/01/06 01:18:06;;;;;;;6.50;3.75;;;;;;;4.27;78.37;99286.84;2554447;28;20520;-81
2024/01/06 01:19:20;;;;;;;8.52;3.83;;;;;;;4.27;78.31;99292.03;2553461;28;20041;-81
2024/01/06 01:20:34;;;;;;;6.00;3.08;;;;;;;4.27;78.36;99288.59;2554722;28;20071;-80
2024/01/06 01:21:48;;;;;;;7.88;4.47;;;;;;;4.25;78.36;99304.06;2553694;28;20048;-80
2024/01/06 01:23:02;;;;;;;8.73;4.78;;;;;;;4.26;78.36;99295.50;2553792;28;20047;-81
2024/01/06 01:24:16;;;;;;;7.68;5.70;;;;;;;4.26;78.33;99300.66;2553846;28;20059;-82
2024/01/06 01:25:30;;;;;;;5.60;3.55;;;;;;;4.27;78.21;99296.34;2553958;28;20052;-81
2024/01/06 01:26:44;;;;;;;7.80;3.42;;;;;;;4.27;78.49;99299.78;2553144;28;20045;-81
2024/01/06 01:27:58;;;;;;;8.45;3.83;;;;;;;4.29;78.42;99302.38;2554076;28;20052;-81
2024/01/06 01:29:13;;;;;;;7.85;3.53;;;;;;;4.29;78.32;99303.22;2553919;28;20062;-80
2024/01/06 01:30:27;;;;;;;7.30;3.17;;;;;;;4.29;78.33;99304.94;2554072;28;20044;-81
2024/01/06 01:31:41;;;;;;;10.07;3.65;;;;;;;4.28;78.19;99304.06;2551866;28;20052;-82
2024/01/06 01:32:55;;;;;;;5.00;3.50;;;;;;;4.28;78.39;99298.03;2549379;28;20048;-81
2024/01/06 01:34:10;;;;;;;8.52;3.42;;;;;;;4.27;78.32;99307.53;2553736;28;20549;-81
2024/01/06 01:35:23;;;;;;;5.97;3.30;;;;;;;4.26;78.33;99308.41;2553252;28;20044;-80
2024/01/06 01:36:38;;;;;;;6.32;2.67;;;;;;;4.25;78.30;99303.22;2553922;28;20066;-81
2024/01/06 01:37:51;;;;;;;6.15;3.28;;;;;;;4.24;78.29;99315.28;2553519;28;20053;-81
2024/01/06 01:39:05;;;;;;;6.57;4.45;;;;;;;4.23;78.34;99310.97;2554033;28;20050;-79
2024/01/06 01:40:19;;;;;;;20.05;3.00;;;;;;;4.23;78.24;99317.88;2553799;28;20051;-81
2024/01/06 01:41:33;;;;;;;10.77;3.30;;;;;;;4.22;78.39;99318.75;2553763;28;20045;-82
2024/01/06 01:42:47;;;;;;;8.52;3.00;;;;;;;4.20;78.09;99323.91;2552421;28;20044;-81
2024/01/06 01:44:01;;;;;;;5.35;3.53;;;;;;;4.20;78.31;99315.31;2553922;28;20078;-82
2024/01/06 01:45:16;;;;;;;6.03;3.00;;;;;;;4.18;78.31;99320.47;2554532;28;20051;-81
2024/01/06 01:46:31;;;;;;;6.82;3.00;;;;;;;4.18;78.17;99319.59;2553840;28;20090;-82
2024/01/06 01:47:45;;;;;;;6.43;3.00;;;;;;;4.17;78.41;99325.66;2554135;28;20504;-82
2024/01/06 01:49:01;;;;;;;12.85;2.90;;;;;;;4.17;78.08;99328.22;2554525;28;20108;-82
2024/01/06 01:50:14;;;;;;;7.22;3.45;;;;;;;4.14;78.26;99327.38;2553703;28;20044;-82
2024/01/06 01:51:30;;;;;;;6.15;3.65;;;;;;;4.16;78.23;99335.13;2553589;28;20153;-82
2024/01/06 01:52:44;;;;;;;15.32;6.30;;;;;;;4.14;78.36;99332.53;2553935;28;20057;-81
2024/01/06 01:53:59;;;;;;;5.13;2.95;;;;;;;4.13;78.37;99330.84;2553654;28;20054;-81
2024/01/06 01:55:12;;;;;;;7.13;3.28;;;;;;;4.12;78.52;99330.81;2553704;28;20045;-80
2024/01/06 01:56:27;;;;;;;6.43;3.05;;;;;;;4.12;78.48;99330.81;2553972;28;20055;-80
2024/01/06 01:57:41;;;;;;;5.25;3.05;;;;;;;4.09;78.35;99336.00;2554003;28;20048;-82
2024/01/06 01:58:55;;;;;;;17.52;5.53;;;;;;;4.08;78.36;99332.56;2553132;28;20707;-80
2024/01/06 02:00:10;;;;;;;8.20;3.47;;;;;;;4.06;78.22;99341.19;2554053;28;20048;-81
2024/01/06 02:01:26;;;;;;;9.25;2.65;;;;;;;4.04;78.28;99341.19;2553926;28;20056;-81
2024/01/06 02:02:39;;;;;;;7.45;3.40;;;;;;;4.03;78.27;99343.78;2553668;28;20371;-81
2024/01/06 02:03:54;;;;;;;3.95;3.13;;;;;;;4.02;78.26;99336.88;2554099;28;20050;-81
2024/01/06 02:05:07;;;;;;;10.55;3.72;;;;;;;4.03;78.46;99336.88;2554153;28;20158;-80
2024/01/06 02:06:22;;;;;;;8.40;3.13;;;;;;;4.04;78.38;99345.50;2553664;28;20040;-81
2024/01/06 02:07:35;;;;;;;5.78;3.92;;;;;;;4.04;78.36;99343.75;2553717;28;20055;-82
2024/01/06 02:08:50;;;;;;;7.38;3.00;;;;;;;4.04;78.36;99345.50;2553900;28;20048;-81
2024/01/06 02:10:04;;;;;;;8.48;3.22;;;;;;;4.03;78.55;99346.38;2545904;28;20056;-82
2024/01/06 02:11:19;;;;;;;5.65;2.63;;;;;;;4.03;78.31;99354.09;2557992;28;20052;-79
2024/01/06 02:12:32;;;;;;;7.07;3.38;;;;;;;4.03;78.40;99354.97;2558014;28;20052;-79
2024/01/06 02:13:46;;;;;;;5.05;2.83;;;;;;;4.03;78.50;99352.38;2553524;28;20054;-82
2024/01/06 02:15:00;;;;;;;8.68;3.78;;;;;;;4.03;78.56;99348.94;2554079;28;20043;-81
2024/01/06 02:16:14;;;;;;;4.55;3.25;;;;;;;4.04;78.46;99355.81;2553956;28;20048;-81
2024/01/06 02:17:29;;;;;;;6.68;3.20;;;;;;;4.04;78.44;99354.09;2554134;28;20504;-81
2024/01/06 02:18:43;;;;;;;5.95;2.60;;;;;;;4.06;78.58;99351.50;2553584;28;20044;-82
2024/01/06 02:19:57;;;;;;;9.15;3.08;;;;;;;4.06;78.57;99354.09;2553688;28;20053;-82
2024/01/06 02:21:11;;;;;;;5.97;3.78;;;;;;;4.07;78.55;99360.97;2553632;28;20055;-81
2024/01/06 02:22:26;;;;;;;8.35;3.45;;;;;;;4.08;78.50;99362.66;2553552;28;20055;-81
2024/01/06 02:23:41;;;;;;;6.18;3.13;;;;;;;4.07;78.46;99354.06;2553032;28;20044;-82
2024/01/06 02:24:54;;;;;;;8.27;3.15;;;;;;;4.08;78.55;99360.97;2553813;28;20063;-81
2024/01/06 02:26:10;;;;;;;18.25;6.05;;;;;;;4.09;78.50;99361.81;2554036;28;20052;-80
2024/01/06 02:27:24;;;;;;;5.47;4.38;;;;;;;4.09;78.40;99367.00;2553160;28;20048;-80
2024/01/06 02:28:38;;;;;;;6.97;3.25;;;;;;;4.09;78.51;99369.56;2553843;28;20139;-82
2024/01/06 02:29:52;;;;;;;8.00;3.72;;;;;;;4.09;78.35;99372.16;2553794;28;20524;-81
2024/01/06 02:31:06;;;;;;;10.50;3.85;;;;;;;4.08;78.47;99376.47;2553755;28;20043;-81
2024/01/06 02:32:19;;;;;;;9.90;2.83;;;;;;;4.08;78.43;99370.41;2553041;28;20044;-81
2024/01/06 02:33:34;;;;;;;5.28;2.85;;;;;;;4.09;78.40;99377.31;2554173;28;20410;-80
2024/01/06 02:34:47;;;;;;;9.25;3.20;;;;;;;4.08;78.57;99373.00;2553099;28;20524;-82
2024/01/06 02:36:02;;;;;;;9.00;3.22;;;;;;;4.08;78.36;99375.56;2553571;28;20104;-82
2024/01/06 02:37:15;;;;;;;5.88;3.03;;;;;;;4.07;78.51;99387.63;2553520;28;20041;-81
2024/01/06 02:38:31;;;;;;;9.13;3.83;;;;;;;4.07;78.38;99382.47;2553655;28;20436;-82
2024/01/06 02:39:44;;;;;;;10.35;4.03;;;;;;;4.08;78.29;99381.63;2553384;28;20488;-82
2024/01/06 02:40:59;;;;;;;4.55;2.63;;;;;;;4.09;78.40;99385.06;2553711;28;20049;-81
2024/01/06 02:42:12;;;;;;;11.02;2.85;;;;;;;4.09;78.54;99385.91;2553230;28;20064;-81
2024/01/06 02:43:27;;;;;;;6.22;3.42;;;;;;;4.08;78.53;99384.22;2553094;28;20040;-81
2024/01/06 02:44:40;;;;;;;12.68;3.58;;;;;;;4.08;78.41;99380.75;2553821;28;20474;-81
2024/01/06 02:45:54;;;;;;;7.88;2.50;;;;;;;4.08;78.44;99385.91;2552882;28;20049;-80
2024/01/06 02:47:08;;;;;;;9.75;3.80;;;;;;;4.08;78.53;99393.66;2552971;28;20048;-82
2024/01/06 02:48:22;;;;;;;5.47;3.35;;;;;;;4.09;78.51;99388.50;2553474;28;20111;-82
2024/01/06 02:49:36;;;;;;;4.15;2.55;;;;;;;4.09;78.42;99390.22;2554179;28;20155;-81
2024/01/06 02:50:50;;;;;;;4.35;2.72;;;;;;;4.08;78.46;99394.53;2552940;28;20048;-81
2024/01/06 02:52:04;;;;;;;6.28;2.47;;;;;;;4.07;78.29;99395.38;2553789;28;20048;-81
2024/01/06 02:53:19;;;;;;;6.95;3.60;;;;;;;4.05;78.38;99391.97;2553009;28;20098;-81
2024/01/06 02:54:33;;;;;;;19.33;5.85;;;;;;;4.05;78.43;99393.66;2553431;28;20512;-81
2024/01/06 02:55:48;;;;;;;5.20;2.85;;;;;;;4.04;78.39;99391.97;2553354;28;20147;-82
2024/01/06 02:57:01;;;;;;;5.53;3.25;;;;;;;4.04;78.29;99397.13;2553623;28;20060;-82
2024/01/06 02:58:16;;;;;;;6.43;3.05;;;;;;;4.02;78.24;99394.53;2552939;28;20055;-80
2024/01/06 02:59:30;;;;;;;5.45;3.13;;;;;;;4.01;78.42;99391.97;2556025;28;20052;-80
2024/01/06 03:00:44;;;;;;;8.98;2.78;;;;;;;4.00;78.45;99391.13;2559401;28;20045;-81
2024/01/06 03:01:58;;;;;;;5.20;2.92;;;;;;;3.99;78.56;99385.94;2553786;28;20413;-81
2024/01/06 03:03:12;;;;;;;4.22;2.63;;;;;;;3.99;78.47;99394.53;2553094;28;20045;-80
2024/01/06 03:04:25;;;;;;;9.45;3.30;;;;;;;3.98;78.43;99397.16;2553791;28;20052;-81
2024/01/06 03:05:40;;;;;;;10.90;3.13;;;;;;;3.97;78.39;99396.25;2553122;28;20067;-82
2024/01/06 03:06:53;;;;;;;7.15;3.00;;;;;;;3.95;78.34;99398.00;2553455;28;20047;-80
2024/01/06 03:08:08;;;;;;;4.22;2.92;;;;;;;3.96;78.49;99396.28;2553498;28;20045;-82
2024/01/06 03:09:21;;;;;;;6.22;2.80;;;;;;;3.94;78.57;99407.44;2553490;28;20041;-81
2024/01/06 03:10:38;;;;;;;8.70;3.17;;;;;;;3.92;78.40;99398.88;2553044;28;20059;-82
2024/01/06 03:11:51;;;;;;;4.38;3.20;;;;;;;3.90;78.38;99400.59;2553427;28;20049;-81
2024/01/06 03:13:05;;;;;;;5.95;2.20;;;;;;;3.89;78.37;99403.16;2553680;28;20567;-81
2024/01/06 03:14:19;;;;;;;6.95;3.38;;;;;;;3.87;78.43;99404.88;2553291;28;20041;-80
2024/01/06 03:15:33;;;;;;;9.43;3.38;;;;;;;3.87;78.43;99408.34;2553250;28;20083;-82
2024/01/06 03:16:47;;;;;;;5.28;2.65;;;;;;;3.87;78.53;99410.03;2553446;28;20155;-81
2024/01/06 03:18:01;;;;;;;16.13;8.80;;;;;;;3.84;78.63;99405.75;2552965;28;20481;-80
2024/01/06 03:19:15;;;;;;;5.70;3.25;;;;;;;3.84;78.49;99410.91;2552676;28;20052;-82
2024/01/06 03:20:29;;;;;;;7.28;3.72;;;;;;;3.83;78.70;99410.94;2553314;28;20401;-80
2024/01/06 03:21:42;;;;;;;5.20;2.88;;;;;;;3.81;78.56;99410.06;2553625;28;20049;-81
2024/01/06 03:22:57;;;;;;;20.48;10.65;;;;;;;3.81;78.52;99410.91;2552992;28;20096;-80
2024/01/06 03:24:10;;;;;;;31.60;20.75;;;;;;;3.79;78.63;99410.06;2552954;28;20048;-80
2024/01/06 03:25:25;;;;;;;14.27;8.75;;;;;;;3.80;78.72;99413.53;2553396;28;20136;-82
2024/01/06 03:26:39;;;;;;;7.18;3.63;;;;;;;3.81;78.89;99412.66;2552981;28;20052;-81
2024/01/06 03:27:54;;;;;;;12.88;5.53;;;;;;;3.82;78.79;99406.59;2553136;28;20072;-81
2024/01/06 03:29:07;;;;;;;30.00;20.40;;;;;;;3.82;78.88;99412.66;2553465;28;20059;-82
2024/01/06 03:30:22;;;;;;;13.40;4.97;;;;;;;3.84;78.87;99410.06;2553662;28;20044;-81
2024/01/06 03:31:35;;;;;;;18.83;8.25;;;;;;;3.83;78.92;99414.38;2553382;28;20060;-81
2024/01/06 03:32:49;;;;;;;10.65;5.25;;;;;;;3.82;78.92;99410.06;2553623;28;20094;-82
2024/01/06 03:34:03;;;;;;;6.95;4.07;;;;;;;3.81;78.91;99410.91;2553433;28;20045;-81
2024/01/06 03:35:17;;;;;;;13.18;4.97;;;;;;;3.82;78.83;99417.81;2552173;28;20043;-81
2024/01/06 03:36:31;;;;;;;42.75;21.30;;;;;;;3.81;78.98;99410.91;2553213;28;20048;-81
2024/01/06 03:37:45;;;;;;;218.32;131.90;;;;;;;3.80;78.91;99411.78;2553929;28;20063;-82
2024/01/06 03:38:59;;;;;;;19.80;12.63;;;;;;;3.80;78.89;99409.22;2552918;28;20040;-82
2024/01/06 03:40:13;;;;;;;15.07;8.55;;;;;;;3.81;79.07;99408.34;2553056;28;20165;-82
2024/01/06 03:41:27;;;;;;;16.80;10.38;;;;;;;3.82;79.07;99415.25;2553710;28;20040;-81
2024/01/06 03:42:43;;;;;;;100.78;63.83;;;;;;;3.83;79.00;99414.38;2552420;28;20104;-82
2024/01/06 03:43:57;;;;;;;16.13;9.50;;;;;;;3.85;79.06;99407.47;2553368;28;20060;-82
2024/01/06 03:45:11;;;;;;;69.97;42.08;;;;;;;3.88;79.20;99410.06;2554890;28;20108;-82
2024/01/06 03:46:25;;;;;;;13.18;9.07;;;;;;;3.91;79.25;99407.47;2554626;28;20048;-80
2024/01/06 03:47:39;;;;;;;100.32;66.25;;;;;;;3.94;79.22;99414.34;2554840;28;20060;-82
2024/01/06 03:48:53;;;;;;;17.73;14.35;;;;;;;3.96;79.28;99410.03;2554836;28;20060;-80
2024/01/06 03:50:08;;;;;;;10.13;5.85;;;;;;;3.98;79.05;99410.91;2554857;28;20054;-82
2024/01/06 03:51:22;;;;;;;9.13;3.95;;;;;;;4.00;79.12;99416.03;2554609;28;20051;-81
2024/01/06 03:52:36;;;;;;;14.30;6.63;;;;;;;4.01;79.59;99415.22;2554812;28;20511;-80
2024/01/06 03:53:49;;;;;;;16.05;8.65;;;;;;;4.02;79.16;99415.19;2554731;28;20425;-80
2024/01/06 03:55:05;;;;;;;152.60;100.13;;;;;;;4.05;79.06;99419.47;2586792;22;20109;-75
2024/01/06 03:56:18;;;;;;;156.45;96.25;;;;;;;4.06;79.21;99413.47;2563481;28;20044;-75
2024/01/06 03:57:33;;;;;;;43.15;28.13;;;;;;;4.06;78.98;99416.91;2563666;28;20048;-75
2024/01/06 03:58:48;;;;;;;20.63;13.25;;;;;;;4.09;78.95;99413.47;2563139;28;20048;-75
2024/01/06 04:00:02;;;;;;;32.17;19.80;;;;;;;4.08;79.16;99420.34;2563467;28;20067;-74
2024/01/06 04:01:16;;;;;;;8.82;4.18;;;;;;;4.08;79.00;99414.31;2563501;28;20405;-74
2024/01/06 04:02:30;;;;;;;7.60;4.00;;;;;;;4.10;78.96;99412.59;2563152;28;20062;-74
2024/01/06 04:03:43;;;;;;;5.50;3.28;;;;;;;4.12;78.85;99413.44;2563538;28;20052;-75
2024/01/06 04:04:58;;;;;;;7.35;2.88;;;;;;;4.13;78.81;99421.19;2560546;28;20416;-74
2024/01/06 04:06:11;;;;;;;45.58;24.65;;;;;;;4.13;78.74;99420.31;2552976;28;20505;-75
2024/01/06 04:07:26;;;;;;;5.28;3.90;;;;;;;4.13;78.65;99421.19;2552782;28;20040;-75
2024/01/06 04:08:39;;;;;;;10.30;4.32;;;;;;;4.13;78.55;99422.91;2553449;28;20044;-75
2024/01/06 04:09:54;;;;;;;8.43;3.28;;;;;;;4.13;78.59;99415.16;2553074;28;20048;-74
2024/01/06 04:11:07;;;;;;;5.25;3.40;;;;;;;4.15;78.51;99416.88;2552586;28;20052;-75
2024/01/06 04:12:21;;;;;;;5.78;3.60;;;;;;;4.16;78.52;99420.34;2553300;28;20505;-75
2024/01/06 04:13:35;;;;;;;6.50;3.90;;;;;;;4.18;78.55;99417.72;2553402;28;20049;-75
2024/01/06 04:14:51;;;;;;;7.18;3.83;;;;;;;4.19;78.61;99417.75;2552898;28;20044;-75
2024/01/06 04:16:05;;;;;;;5.80;3.08;;;;;;;4.20;78.67;99411.69;2552900;28;20049;-74
2024/01/06 04:17:19;;;;;;;6.60;3.33;;;;;;;4.20;78.42;99416.88;2553247;28;20059;-74
2024/01/06 04:18:33;;;;;;;5.50;3.75;;;;;;;4.21;78.47;99416.03;2552946;28;20049;-75
2024/01/06 04:19:47;;;;;;;6.07;3.78;;;;;;;4.20;78.47;99403.94;2553265;28;20048;-75
2024/01/06 04:21:00;;;;;;;9.50;3.33;;;;;;;4.21;78.34;99413.44;2552914;28;20044;-75
2024/01/06 04:22:15;;;;;;;7.90;4.20;;;;;;;4.23;78.21;99416.84;2553163;28;20067;-75
2024/01/06 04:23:28;;;;;;;7.57;4.32;;;;;;;4.23;78.22;99410.84;2552750;28;20496;-75
2024/01/06 04:24:43;;;;;;;5.63;3.28;;;;;;;4.24;78.24;99415.16;2553079;28;20063;-75
2024/01/06 04:25:56;;;;;;;10.65;4.65;;;;;;;4.26;78.34;99413.41;2553006;28;20049;-74
2024/01/06 04:27:11;;;;;;;8.45;6.07;;;;;;;4.26;78.21;99413.41;2552288;28;20036;-75
2024/01/06 04:28:24;;;;;;;9.77;4.82;;;;;;;4.25;78.21;99417.72;2553125;28;20408;-74
2024/01/06 04:29:39;;;;;;;10.38;4.53;;;;;;;4.26;78.19;99424.63;2553330;28;20052;-74
2024/01/06 04:30:54;;;;;;;8.40;7.20;;;;;;;4.27;78.04;99420.31;2552187;28;20048;-75
2024/01/06 04:32:08;;;;;;;8.50;4.88;;;;;;;4.27;78.07;99413.41;2552969;28;20135;-74
2024/01/06 04:33:22;;;;;;;11.35;5.75;;;;;;;4.27;78.16;99421.16;2552908;28;20546;-75
2024/01/06 04:34:36;;;;;;;10.50;4.25;;;;;;;4.28;78.03;99420.28;2552449;28;20055;-75
2024/01/06 04:35:50;;;;;;;4.72;3.88;;;;;;;4.28;78.04;99412.53;2552851;28;20489;-75
2024/01/06 04:37:04;;;;;;;11.48;4.50;;;;;;;4.30;78.02;99415.97;2552894;28;20059;-75
2024/01/06 04:38:17;;;;;;;11.48;3.60;;;;;;;4.30;77.88;99412.53;2552779;28;20482;-75
2024/01/06 04:39:32;;;;;;;5.22;3.03;;;;;;;4.30;77.91;99418.56;2552583;28;20048;-75
2024/01/06 04:40:45;;;;;;;7.38;3.60;;;;;;;4.30;78.12;99409.97;2552777;28;20048;-75
2024/01/06 04:42:00;;;;;;;6.68;3.08;;;;;;;4.31;77.93;99414.25;2552759;28;20052;-74
2024/01/06 04:43:14;;;;;;;14.55;6.93;;;;;;;4.28;77.75;99407.38;2552548;28;20051;-75
2024/01/06 04:44:28;;;;;;;6.47;3.55;;;;;;;4.29;77.97;99408.25;2553220;28;20056;-75
2024/01/06 04:45:41;;;;;;;7.20;3.92;;;;;;;4.29;77.82;99411.69;2552618;28;20048;-75
2024/01/06 04:46:57;;;;;;;7.55;3.13;;;;;;;4.31;77.77;99412.53;2551917;28;20041;-75
2024/01/06 04:48:11;;;;;;;7.22;3.47;;;;;;;4.31;77.84;99412.53;2552777;28;20049;-75
2024/01/06 04:49:25;;;;;;;8.55;3.17;;;;;;;4.31;77.67;99412.53;2552971;28;20045;-75
2024/01/06 04:50:38;;;;;;;4.90;3.15;;;;;;;4.32;77.71;99409.09;2552375;28;20044;-75
2024/01/06 04:51:53;;;;;;;4.60;2.58;;;;;;;4.32;77.85;99409.09;2552869;28;20049;-75
2024/01/06 04:53:06;;;;;;;5.10;3.05;;;;;;;4.32;77.60;99413.41;2552682;28;20467;-75
2024/01/06 04:54:21;;;;;;;10.70;4.20;;;;;;;4.32;77.51;99411.66;2552953;28;20056;-75
2024/01/06 04:55:34;;;;;;;6.00;3.17;;;;;;;4.32;77.57;99414.25;2551759;28;20504;-75
2024/01/06 04:56:48;;;;;;;5.13;3.40;;;;;;;4.31;77.22;99412.53;2552841;28;20045;-74
2024/01/06 04:58:02;;;;;;;8.25;5.72;;;;;;;4.32;77.50;99414.25;2552485;28;20417;-75
2024/01/06 04:59:16;;;;;;;13.02;3.15;;;;;;;4.34;77.52;99414.25;2552289;28;20043;-75
2024/01/06 05:00:30;;;;;;;4.95;2.92;;;;;;;4.34;77.65;99411.69;2552849;28;20055;-75
2024/01/06 05:01:44;;;;;;;11.10;4.28;;;;;;;4.34;77.58;99416.84;2552837;28;20055;-75
2024/01/06 05:02:59;;;;;;;7.15;4.40;;;;;;;4.34;77.45;99414.25;2552320;28;20513;-75
2024/01/06 05:04:13;;;;;;;7.65;3.53;;;;;;;4.34;77.66;99411.69;2552578;28;20048;-75
2024/01/06 05:05:27;;;;;;;10.15;4.10;;;;;;;4.34;77.48;99420.28;2551937;28;20051;-75
2024/01/06 05:06:41;;;;;;;11.70;3.45;;;;;;;4.34;77.40;99417.69;2552362;28;20559;-75
2024/01/06 05:07:55;;;;;;;6.63;3.72;;;;;;;4.35;77.43;99418.56;2552698;28;20049;-75
2024/01/06 05:09:09;;;;;;;6.57;3.67;;;;;;;4.36;77.54;99409.94;2552894;28;20071;-75
2024/01/06 05:10:22;;;;;;;8.02;2.95;;;;;;;4.37;77.49;99419.41;2552231;28;20401;-75
2024/01/06 05:11:37;;;;;;;3.90;2.78;;;;;;;4.37;77.20;99417.69;2552786;28;20045;-75
2024/01/06 05:12:50;;;;;;;8.38;3.00;;;;;;;4.38;77.40;99414.22;2552665;28;20056;-75
2024/01/06 05:14:05;;;;;;;7.57;3.45;;;;;;;4.38;77.17;99406.47;2552498;28;20143;-75
2024/01/06 05:15:18;;;;;;;6.20;2.78;;;;;;;4.40;77.27;99410.78;2552165;28;20548;-75
2024/01/06 05:16:33;;;;;;;7.18;2.67;;;;;;;4.38;77.18;99403.88;2552606;28;20059;-75
2024/01/06 05:17:46;;;;;;;7.72;2.70;;;;;;;4.37;77.14;99402.19;2552775;28;20052;-75
2024/01/06 05:19:02;;;;;;;11.65;4.65;;;;;;;4.37;77.08;99409.09;2552146;28;20051;-75
2024/01/06 05:20:15;;;;;;;8.45;3.08;;;;;;;4.37;77.15;99403.91;2544633;28;20102;-75
2024/01/06 05:21:30;;;;;;;7.88;3.20;;;;;;;4.38;77.10;99411.63;2552553;28;20056;-75
2024/01/06 05:22:43;;;;;;;9.95;3.20;;;;;;;4.38;77.06;99405.63;2552069;28;20040;-75
2024/01/06 05:23:58;;;;;;;17.50;4.38;;;;;;;4.38;77.04;99397.88;2552123;28;20086;-75
2024/01/06 05:25:11;;;;;;;14.20;7.72;;;;;;;4.37;77.05;99404.75;2552336;28;20048;-75
2024/01/06 05:26:26;;;;;;;7.28;4.28;;;;;;;4.35;76.92;99398.75;2551918;28;20071;-75
2024/01/06 05:27:39;;;;;;;4.72;3.30;;;;;;;4.37;77.03;99401.34;2552593;28;20055;-75
2024/01/06 05:28:53;;;;;;;5.88;2.97;;;;;;;4.36;76.85;99405.63;2552525;28;20420;-75
2024/01/06 05:30:08;;;;;;;6.78;3.78;;;;;;;4.34;76.67;99401.34;2552363;28;20048;-75
2024/01/06 05:31:22;;;;;;;4.53;3.72;;;;;;;4.32;76.77;99406.50;2552031;28;20049;-74
2024/01/06 05:32:37;;;;;;;5.72;3.30;;;;;;;4.33;76.90;99400.47;2552597;28;20053;-75
2024/01/06 05:33:51;;;;;;;5.82;3.53;;;;;;;4.34;76.92;99401.34;2552573;28;20048;-75
2024/01/06 05:35:07;;;;;;;7.93;3.50;;;;;;;4.35;77.10;99409.06;2551442;28;20044;-75
2024/01/06 05:36:21;;;;;;;5.60;3.20;;;;;;;4.37;77.16;99406.50;2552372;28;20048;-75
2024/01/06 05:37:35;;;;;;;6.97;3.13;;;;;;;4.40;76.69;99410.78;2552339;28;20048;-75
2024/01/06 05:38:50;;;;;;;7.15;3.63;;;;;;;4.41;77.18;99404.75;2552164;28;20432;-75
2024/01/06 05:40:05;;;;;;;8.00;3.13;;;;;;;4.43;76.92;99403.03;2552006;28;20055;-75
2024/01/06 05:41:19;;;;;;;5.45;3.25;;;;;;;4.44;76.82;99403.03;2552051;28;20063;-75
2024/01/06 05:42:33;;;;;;;8.10;3.25;;;;;;;4.46;76.89;99410.75;2549275;28;20547;-75
2024/01/06 05:43:47;;;;;;;5.82;2.75;;;;;;;4.46;76.79;99411.59;2552433;28;20056;-75
2024/01/06 05:45:01;;;;;;;6.60;2.97;;;;;;;4.46;76.86;99411.59;2552350;28;20056;-75
2024/01/06 05:46:21;;;;;;;5.93;3.33;;;;;;;4.48;76.65;99415.06;2552105;28;20428;-75
2024/01/06 05:47:35;;;;;;;8.20;4.50;;;;;;;4.50;76.67;99417.66;2552107;28;20059;-75
2024/01/06 05:48:49;;;;;;;4.47;2.75;;;;;;;4.49;76.72;99415.91;2552345;28;20043;-75
2024/01/06 05:50:03;;;;;;;4.43;3.03;;;;;;;4.50;76.75;99412.47;2552133;28;20745;-74
2024/01/06 05:51:19;;;;;;;6.28;3.17;;;;;;;4.49;76.58;99409.03;2551824;28;20041;-74